Saint George's, Grenada

6:38 AM AST on April 26, 2017 (GMT -0400)
True Blue | | Change Station

Elev 69 ft 12.01 °N, 61.77 °W | Updated 41 seconds ago

Clear
Clear
81.0 °F
Feels Like 87 °F
N
1.0
Wind Variable Wind from West
Gusts 9.0 mph

Today
High -- | Low -- °F
--% Chance of Precip.
Yesterday
High -- | Low -- °F
Precip. -- in
Pressure 29.89 in
Visibility 6.2 miles
Clouds Few 1800 ft
Heat Index 87 °F
Dew Point 75 °F
Humidity 82%
Rainfall 0.00 in
Snow Depth Not available.
5:49 AM 6:20 PM
Waning Crescent, 0% visible
METAR TGPY 261000Z 10016KT 9999 FEW018TCU 27/24 Q1012 NOSIG TCU-S TO W
Pressure 29.89 in
Visibility 6.2 miles
Clouds Few 1800 ft
Heat Index 87 °F
Dew Point 75 °F
Humidity 82%
Rainfall 0.00 in
Snow Depth Not available.
5:49 AM 6:20 PM
Waning Crescent, 0% visible
METAR TGPY 261000Z 10016KT 9999 FEW018TCU 27/24 Q1012 NOSIG TCU-S TO W

Get Severe Weather Alerts

Thanks for signing up!

Be on the lookout for a verification email in your inbox.

You'll start receiving the daily forecast at 8 AM.

×

10-Day Weather Forecast

No radar image for this location.
×

Almanac

Astronomy

Apr. 26, 2017 Rise Set
Actual Time
Civil Twilight
Nautical Twilight
Astronomical Twilight
Moon
Length of Visible Light
Length of Day
Tomorrow will be .
, % of the Moon is Illuminated

Today's Extremes

Country Highs Country Lows

Community

WunderPhotos

WunderBlog® & News

Nearby

Air Quality

  Air Quality AQ Index Pollutant
Not available.

Snow Depth

Station Depth Elevation

Earthquake Activity

City Distance Mag. Time & Date
Minimum magnitude displayed is 2.5.

Coastal Water Temperatures

Place Temperature

Stations

Nearby Weather Stations

Station Location Temp. Windchill Dew Point Humidity Wind Precip. Elev Updated Type